createdAt,value
2023-03-29T13:21:11.087Z,41.12
2023-03-29T13:22:11.120Z,41.10
2023-03-29T13:23:11.770Z,40.94
2023-03-29T13:24:11.018Z,40.42
2023-03-29T13:25:10.929Z,40.20
2023-03-29T13:26:10.846Z,40.47
2023-03-29T13:27:11.785Z,40.21
2023-03-29T13:28:10.695Z,40.17
2023-03-29T13:29:10.621Z,39.79
2023-03-29T13:30:10.558Z,40.11
2023-03-29T13:31:10.641Z,40.52
2023-03-29T13:32:10.389Z,40.23
2023-03-29T13:33:16.391Z,40.10
2023-03-29T13:34:12.837Z,40.26
2023-03-29T13:35:10.799Z,39.48
2023-03-29T13:36:10.091Z,39.27
2023-03-29T13:37:09.952Z,39.22
2023-03-29T13:38:09.849Z,39.62
2023-03-29T13:39:09.752Z,40.02
2023-03-29T13:40:09.650Z,40.78
2023-03-29T13:41:09.547Z,40.33
2023-03-29T13:42:09.455Z,40.71
2023-03-29T13:43:09.367Z,40.35
2023-03-29T13:44:09.320Z,40.57
2023-03-29T13:45:09.188Z,40.57
2023-03-29T13:46:09.196Z,41.16
2023-03-29T13:47:09.051Z,42.14
2023-03-29T13:48:08.996Z,42.50
2023-03-29T13:49:08.918Z,42.87
2023-03-29T13:50:08.873Z,43.43
2023-03-29T13:51:08.823Z,43.88
2023-03-29T13:52:08.753Z,44.48
2023-03-29T13:53:08.691Z,44.94
2023-03-29T13:54:08.656Z,46.03
2023-03-29T13:55:08.646Z,46.82
2023-03-29T13:56:08.580Z,47.72
2023-03-29T13:57:08.640Z,48.41
2023-03-29T13:58:09.240Z,48.75
2023-03-29T13:59:08.769Z,49.08
2023-03-29T14:00:08.496Z,48.73
2023-03-29T14:01:08.458Z,48.31
2023-03-29T14:02:08.451Z,48.65
2023-03-29T14:03:08.918Z,48.63
2023-03-29T14:04:08.415Z,48.44
2023-03-29T14:05:08.384Z,48.18
2023-03-29T14:06:08.392Z,47.98
2023-03-29T14:07:08.396Z,47.61
2023-03-29T14:08:08.439Z,47.66
2023-03-29T14:09:08.466Z,46.72
2023-03-29T14:10:08.525Z,46.57
2023-03-29T14:11:08.430Z,46.61
2023-03-29T14:12:08.446Z,47.21
2023-03-29T14:13:08.478Z,47.42
2023-03-29T14:14:08.499Z,47.60
2023-03-29T14:15:08.410Z,47.87
2023-03-29T14:16:08.450Z,48.24
2023-03-29T14:17:08.447Z,47.98
2023-03-29T14:18:08.903Z,47.83
2023-03-29T14:19:08.401Z,48.77
2023-03-29T14:20:08.410Z,47.71
2023-03-29T14:21:09.278Z,47.58
2023-03-29T14:22:08.687Z,47.46
2023-03-29T14:23:08.402Z,47.57
2023-03-29T14:24:08.379Z,47.09
2023-03-29T14:25:08.396Z,46.90
2023-03-29T14:26:08.400Z,47.18
2023-03-29T14:27:08.369Z,46.92
2023-03-29T14:28:08.335Z,46.98
2023-03-29T14:29:08.356Z,46.92
2023-03-29T14:30:08.327Z,46.83
2023-03-29T14:31:08.337Z,46.29
2023-03-29T14:32:08.291Z,46.63
2023-03-29T14:33:08.317Z,46.78
2023-03-29T14:34:08.313Z,46.91
2023-03-29T14:35:08.264Z,46.71
2023-03-29T14:36:08.459Z,46.39
2023-03-29T14:37:08.300Z,46.53
2023-03-29T14:38:08.216Z,46.91
2023-03-29T14:39:08.218Z,47.33
2023-03-29T14:40:08.116Z,46.34
2023-03-29T14:41:08.074Z,46.19
2023-03-29T14:42:08.084Z,46.02
2023-03-29T14:43:08.109Z,46.16
2023-03-29T14:44:08.074Z,46.50
2023-03-29T14:45:08.043Z,46.93
2023-03-29T14:46:08.060Z,47.85
2023-03-29T14:47:07.982Z,47.81
2023-03-29T14:48:08.038Z,47.97
2023-03-29T14:49:07.962Z,48.99
2023-03-29T14:50:07.963Z,50.29
2023-03-29T14:51:07.946Z,50.64
2023-03-29T14:52:07.936Z,50.64
2023-03-29T14:53:07.983Z,51.14
2023-03-29T14:54:07.899Z,51.13
2023-03-29T14:55:07.876Z,50.77
2023-03-29T14:56:07.893Z,51.22
2023-03-29T14:57:08.041Z,51.82
2023-03-29T14:58:09.506Z,52.45
2023-03-29T14:59:07.847Z,52.31
2023-03-29T15:00:07.770Z,53.32
2023-03-29T15:01:07.798Z,53.15
2023-03-29T15:02:07.751Z,53.14
2023-03-29T15:03:07.844Z,52.41
2023-03-29T15:04:07.575Z,52.46
2023-03-29T15:05:07.502Z,52.03
2023-03-29T15:06:07.460Z,52.14
2023-03-29T15:07:07.412Z,52.39
2023-03-29T15:08:07.366Z,52.38
2023-03-29T15:09:07.352Z,52.34
2023-03-29T15:10:07.273Z,52.58
2023-03-29T15:11:07.268Z,52.62
2023-03-29T15:12:07.168Z,52.55
2023-03-29T15:13:07.138Z,53.10
2023-03-29T15:14:07.081Z,54.36
2023-03-29T15:15:07.024Z,54.83
2023-03-29T15:16:08.344Z,54.73
2023-03-29T15:17:06.904Z,54.70
2023-03-29T15:18:06.936Z,54.33
2023-03-29T15:19:06.780Z,54.01
2023-03-29T15:20:06.703Z,52.92
2023-03-29T15:21:06.668Z,52.90
2023-03-29T15:22:06.602Z,53.83
2023-03-29T15:23:06.584Z,54.32
2023-03-29T15:24:06.520Z,53.37
2023-03-29T15:25:06.473Z,53.79
2023-03-29T15:26:06.453Z,54.22
2023-03-29T15:27:06.408Z,53.45
2023-03-29T15:28:06.403Z,53.24
2023-03-29T15:29:06.286Z,53.29
2023-03-29T15:30:06.234Z,53.61
2023-03-29T15:31:08.229Z,52.59
2023-03-29T15:32:06.165Z,52.48
2023-03-29T15:33:06.208Z,52.23
2023-03-29T15:35:06.030Z,51.84
2023-03-29T15:36:06.384Z,51.84
2023-03-29T15:37:06.108Z,51.60
2023-03-29T15:38:06.020Z,52.03
2023-03-29T15:39:05.997Z,51.40
2023-03-29T15:40:05.971Z,51.64
2023-03-29T15:41:05.986Z,51.72
2023-03-29T15:42:05.937Z,51.56
2023-03-29T15:43:05.893Z,50.91
2023-03-29T15:44:06.849Z,50.68
2023-03-29T15:45:05.773Z,50.54
2023-03-29T15:46:05.942Z,50.85
2023-03-29T15:47:05.722Z,50.87
2023-03-29T15:48:05.759Z,50.44
2023-03-29T15:49:05.673Z,50.55
2023-03-29T15:50:05.579Z,51.44
2023-03-29T15:51:06.837Z,52.27
2023-03-29T15:52:05.515Z,54.00
2023-03-29T15:53:14.783Z,54.69
2023-03-29T15:54:06.478Z,54.90
2023-03-29T15:55:05.428Z,54.94
2023-03-29T15:56:05.535Z,55.11
2023-03-29T15:57:05.381Z,55.35
2023-03-29T15:58:05.364Z,55.51
2023-03-29T15:59:05.254Z,55.64
2023-03-29T16:00:05.201Z,55.72
2023-03-29T16:01:05.184Z,55.78
2023-03-29T16:02:05.187Z,55.84
2023-03-29T16:03:05.083Z,55.79
2023-03-29T16:04:05.100Z,55.75
2023-03-29T16:05:04.991Z,55.77
2023-03-29T16:06:05.287Z,55.62
2023-03-29T16:07:04.971Z,55.96
2023-03-29T16:08:04.931Z,56.06
2023-03-29T16:09:04.924Z,56.06
2023-03-29T16:10:04.949Z,56.22
2023-03-29T16:11:04.945Z,56.41
2023-03-29T16:12:04.972Z,56.48
2023-03-29T16:13:04.968Z,56.63
2023-03-29T16:14:05.051Z,56.85
2023-03-29T16:15:05.005Z,56.88
2023-03-29T16:16:05.223Z,57.02
2023-03-29T16:17:05.116Z,57.22
2023-03-29T16:18:05.055Z,57.21
2023-03-29T16:19:05.046Z,57.23
2023-03-29T16:20:05.090Z,57.60
2023-03-29T16:21:05.052Z,57.61
2023-03-29T16:22:05.137Z,57.72
2023-03-29T16:23:05.090Z,57.70
2023-03-29T16:24:05.090Z,57.87
2023-03-29T16:25:05.089Z,57.99
2023-03-29T16:26:05.449Z,58.21
2023-03-29T16:27:05.057Z,58.35
2023-03-29T16:28:05.061Z,58.41
2023-03-29T16:29:05.132Z,58.64
2023-03-29T16:30:05.084Z,58.80
2023-03-29T16:31:05.070Z,58.80
2023-03-29T16:32:06.887Z,59.02
2023-03-29T16:33:05.124Z,59.36
2023-03-29T16:34:05.076Z,59.38
2023-03-29T16:35:05.062Z,59.41
2023-03-29T16:36:05.288Z,59.64
2023-03-29T16:37:05.076Z,59.91
2023-03-29T16:38:05.104Z,59.97
2023-03-29T16:39:05.179Z,59.97
2023-03-29T16:40:05.288Z,60.08
2023-03-29T16:41:05.823Z,60.35
2023-03-29T16:42:05.217Z,60.36
2023-03-29T16:43:05.232Z,60.42
2023-03-29T16:44:05.246Z,60.63
2023-03-29T16:45:05.246Z,60.74
2023-03-29T16:46:05.462Z,60.78
2023-03-29T16:47:05.253Z,60.80
2023-03-29T16:48:05.314Z,60.99
2023-03-29T16:49:05.290Z,61.55
2023-03-29T16:50:05.366Z,61.55
2023-03-29T16:51:05.335Z,61.33
2023-03-29T16:52:05.390Z,61.21
2023-03-29T16:53:05.393Z,61.07
2023-03-29T16:54:06.103Z,61.15
2023-03-29T16:55:05.367Z,61.45
2023-03-29T16:56:05.645Z,61.58
2023-03-29T16:57:05.456Z,61.78
2023-03-29T16:58:05.511Z,62.15
2023-03-29T16:59:05.473Z,62.06
2023-03-29T17:00:05.494Z,61.82
2023-03-29T17:01:05.536Z,62.04
2023-03-29T17:02:05.555Z,62.17
2023-03-29T17:03:05.642Z,62.39
2023-03-29T17:04:05.624Z,62.54
2023-03-29T17:05:05.615Z,62.86
2023-03-29T17:06:05.838Z,62.84
2023-03-29T17:07:05.722Z,63.01
2023-03-29T17:08:05.731Z,63.20
2023-03-29T17:09:05.739Z,62.83
2023-03-29T17:10:05.755Z,62.43
2023-03-29T17:11:05.798Z,62.23
2023-03-29T17:12:05.804Z,62.19
2023-03-29T17:13:05.831Z,62.23
2023-03-29T17:14:05.838Z,62.38
2023-03-29T17:15:05.853Z,62.65
2023-03-29T17:16:06.263Z,62.81
2023-03-29T17:17:05.911Z,63.16
2023-03-29T17:18:05.986Z,63.08
2023-03-29T17:19:05.978Z,62.90
2023-03-29T17:20:05.963Z,63.04
2023-03-29T17:21:05.960Z,63.12
2023-03-29T17:22:05.964Z,63.34
2023-03-29T17:23:05.971Z,63.50
2023-03-29T17:24:05.977Z,63.74
2023-03-29T17:25:05.983Z,63.92
2023-03-29T17:26:05.999Z,63.75
2023-03-29T17:27:05.989Z,63.74
2023-03-29T17:28:05.991Z,63.59
2023-03-29T17:29:05.997Z,63.52
2023-03-29T17:30:05.983Z,63.44
2023-03-29T17:31:06.024Z,63.52
2023-03-29T17:32:05.989Z,63.44
2023-03-29T17:33:06.001Z,63.81
2023-03-29T17:34:05.964Z,64.17
2023-03-29T17:35:05.988Z,64.43
2023-03-29T17:36:06.454Z,64.50
2023-03-29T17:37:06.040Z,64.72
2023-03-29T17:38:06.119Z,64.44
2023-03-29T17:39:06.166Z,64.37
2023-03-29T17:40:06.197Z,64.26
2023-03-29T17:41:06.240Z,64.34
2023-03-29T17:42:06.322Z,64.64
2023-03-29T17:43:06.341Z,64.65
2023-03-29T17:44:06.400Z,64.71
2023-03-29T17:45:06.856Z,64.69
2023-03-29T17:46:06.528Z,65.02
2023-03-29T17:47:06.396Z,64.94
2023-03-29T17:48:06.718Z,64.82
2023-03-29T17:49:06.407Z,64.68
2023-03-29T17:50:06.385Z,64.64
2023-03-29T17:51:06.407Z,64.73
2023-03-29T17:52:06.408Z,64.88
2023-03-29T17:53:06.486Z,65.29
2023-03-29T17:54:06.411Z,65.43
2023-03-29T17:55:06.416Z,65.23
2023-03-29T17:56:06.424Z,64.88
2023-03-29T17:57:06.460Z,64.68
2023-03-29T17:58:06.412Z,64.66
2023-03-29T17:59:06.423Z,64.84
2023-03-29T18:00:06.490Z,65.08
2023-03-29T18:01:06.537Z,65.01
2023-03-29T18:02:06.678Z,65.06
2023-03-29T18:03:07.361Z,65.18
2023-03-29T18:04:06.679Z,65.46
2023-03-29T18:05:06.703Z,65.33
2023-03-29T18:06:06.906Z,65.43
2023-03-29T18:07:06.879Z,65.68
2023-03-29T18:08:06.947Z,65.60
2023-03-29T18:09:06.986Z,65.28
2023-03-29T18:10:07.052Z,65.37
2023-03-29T18:11:07.096Z,65.36
2023-03-29T18:12:07.133Z,65.40
2023-03-29T18:13:07.245Z,65.50
2023-03-29T18:14:07.214Z,65.46
2023-03-29T18:15:07.254Z,65.42
2023-03-29T18:16:07.630Z,65.39
2023-03-29T18:17:07.441Z,65.45
2023-03-29T18:18:07.493Z,65.55
2023-03-29T18:19:07.462Z,65.90
2023-03-29T18:20:07.548Z,65.94
2023-03-29T18:21:07.576Z,66.14
2023-03-29T18:22:07.584Z,66.34
2023-03-29T18:23:07.610Z,66.14
2023-03-29T18:24:07.622Z,66.18
2023-03-29T18:25:07.624Z,66.39
2023-03-29T18:26:07.678Z,66.48
2023-03-29T18:27:07.699Z,66.56
2023-03-29T18:28:07.780Z,66.53
2023-03-29T18:29:09.731Z,66.54
2023-03-29T18:30:07.723Z,66.57
2023-03-29T18:31:07.740Z,66.68
2023-03-29T18:32:07.844Z,66.64
2023-03-29T18:33:07.798Z,66.75
2023-03-29T18:34:07.812Z,67.08
2023-03-29T18:35:07.825Z,67.14
2023-03-29T18:36:10.878Z,67.16
2023-03-29T18:37:08.941Z,66.92
2023-03-29T18:38:07.926Z,66.68
2023-03-29T18:39:07.944Z,66.84
2023-03-29T18:40:08.063Z,66.79
2023-03-29T18:41:07.983Z,66.70
2023-03-29T18:42:08.759Z,66.58
2023-03-29T18:43:08.027Z,66.44
2023-03-29T18:44:08.096Z,66.38
2023-03-29T18:45:08.069Z,66.39
2023-03-29T18:46:08.235Z,66.93
2023-03-29T18:47:08.088Z,66.93
2023-03-29T18:48:08.233Z,66.92
2023-03-29T18:49:08.214Z,67.07
2023-03-29T18:50:08.308Z,67.09
2023-03-29T18:51:08.327Z,66.85
2023-03-29T18:52:08.372Z,67.01
2023-03-29T18:53:08.406Z,66.88
2023-03-29T18:54:08.481Z,66.82
2023-03-29T18:55:08.592Z,66.89
2023-03-29T18:56:08.633Z,66.87
2023-03-29T18:57:08.757Z,67.20
2023-03-29T18:58:08.774Z,67.50
2023-03-29T18:59:08.894Z,67.43
2023-03-29T19:00:08.933Z,67.34
2023-03-29T19:01:08.966Z,67.14
2023-03-29T19:02:09.005Z,67.10
2023-03-29T19:03:09.120Z,67.18
2023-03-29T19:04:09.075Z,67.53
2023-03-29T19:05:09.117Z,67.67
2023-03-29T19:06:09.119Z,67.67
2023-03-29T19:07:09.171Z,67.71
2023-03-29T19:08:09.248Z,67.69
2023-03-29T19:09:09.241Z,67.59
2023-03-29T19:10:09.242Z,67.41
2023-03-29T19:11:09.289Z,67.43
2023-03-29T19:12:09.274Z,67.76
2023-03-29T19:13:09.299Z,67.87
2023-03-29T19:14:09.428Z,67.83
2023-03-29T19:15:09.331Z,67.94
2023-03-29T19:16:09.589Z,68.28
2023-03-29T19:17:09.379Z,68.31
2023-03-29T19:18:09.422Z,68.23
2023-03-29T19:19:09.425Z,68.17
2023-03-29T19:20:09.421Z,68.25
2023-03-29T19:21:09.464Z,68.05
2023-03-29T19:22:09.518Z,68.32
2023-03-29T19:23:09.621Z,68.38
2023-03-29T19:24:09.708Z,68.35
2023-03-29T19:25:09.796Z,68.28
2023-03-29T19:26:09.867Z,68.18
2023-03-29T19:27:12.110Z,68.10
2023-03-29T19:28:09.936Z,68.15
2023-03-29T19:29:09.973Z,68.17
2023-03-29T19:30:10.018Z,68.21
2023-03-29T19:31:10.078Z,68.25
2023-03-29T19:32:10.048Z,68.15
2023-03-29T19:33:10.051Z,68.06
2023-03-29T19:34:10.056Z,67.90
2023-03-29T19:35:10.058Z,67.82
2023-03-29T19:36:10.150Z,67.67
2023-03-29T19:37:10.085Z,67.60
2023-03-29T19:38:10.108Z,67.55
2023-03-29T19:39:10.122Z,67.42
2023-03-29T19:40:10.129Z,67.37
2023-03-29T19:41:10.146Z,67.41
2023-03-29T19:42:10.123Z,67.44
2023-03-29T19:43:10.194Z,67.39
2023-03-29T19:44:10.158Z,67.33
2023-03-29T19:45:10.178Z,67.21
2023-03-29T19:46:10.344Z,67.44
2023-03-29T19:47:10.209Z,67.51
2023-03-29T19:49:10.242Z,67.23
2023-03-29T19:50:10.281Z,67.10
2023-03-29T19:51:10.250Z,67.02
2023-03-29T19:52:10.258Z,67.03
2023-03-29T19:53:10.324Z,67.03
2023-03-29T19:54:10.251Z,67.23
2023-03-29T19:55:10.259Z,67.13
2023-03-29T19:56:10.275Z,67.27
2023-03-29T19:57:10.441Z,67.45
2023-03-29T19:58:10.367Z,67.51
2023-03-29T19:59:10.438Z,67.40
2023-03-29T20:00:10.511Z,67.65
2023-03-29T20:01:10.583Z,67.71
2023-03-29T20:02:10.793Z,67.73
2023-03-29T20:03:10.803Z,67.59
2023-03-29T20:04:10.767Z,67.48
2023-03-29T20:05:10.809Z,67.31
2023-03-29T20:06:10.880Z,67.12
2023-03-29T20:07:10.889Z,67.48
2023-03-29T20:08:10.878Z,68.04
2023-03-29T20:09:10.882Z,68.28
2023-03-29T20:10:10.898Z,68.16
2023-03-29T20:11:10.930Z,68.16
2023-03-29T20:12:10.975Z,67.98
2023-03-29T20:13:10.979Z,67.84
2023-03-29T20:14:11.019Z,67.66
2023-03-29T20:15:11.064Z,67.54
2023-03-29T20:16:11.150Z,67.52
2023-03-29T20:17:11.176Z,67.57
2023-03-29T20:18:11.279Z,67.54
2023-03-29T20:19:11.277Z,67.65
2023-03-29T20:20:11.336Z,67.67
2023-03-29T20:21:11.409Z,67.79
2023-03-29T20:22:11.421Z,67.79
2023-03-29T20:23:11.440Z,67.75
2023-03-29T20:24:11.427Z,67.74
2023-03-29T20:25:11.443Z,67.68
2023-03-29T20:26:11.451Z,67.71
2023-03-29T20:27:11.445Z,67.93
2023-03-29T20:28:11.485Z,68.13
2023-03-29T20:29:11.475Z,68.10
2023-03-29T20:30:11.494Z,68.10
2023-03-29T20:31:11.530Z,68.11
2023-03-29T20:32:11.580Z,68.20
2023-03-29T20:33:11.539Z,68.23
2023-03-29T20:34:11.571Z,68.01
2023-03-29T20:35:11.634Z,67.96
2023-03-29T20:36:11.671Z,68.04
2023-03-29T20:37:11.690Z,68.02
2023-03-29T20:38:11.648Z,68.08
2023-03-29T20:39:11.658Z,67.85
2023-03-29T20:40:11.738Z,67.82
2023-03-29T20:41:11.774Z,67.78
2023-03-29T20:42:11.846Z,67.83
2023-03-29T20:43:11.917Z,67.88
2023-03-29T20:44:11.965Z,67.99
2023-03-29T20:45:11.952Z,68.09
2023-03-29T20:46:12.003Z,68.07
2023-03-29T20:47:11.981Z,68.04
2023-03-29T20:48:11.973Z,68.14
2023-03-29T20:49:11.994Z,68.19
2023-03-29T20:50:12.005Z,68.25
2023-03-29T20:51:12.003Z,68.32
2023-03-29T20:52:11.995Z,68.38
2023-03-29T20:53:12.010Z,68.41
2023-03-29T20:54:12.029Z,68.36
2023-03-29T20:55:12.043Z,68.32
2023-03-29T20:56:12.151Z,68.25
2023-03-29T20:57:12.079Z,68.51
2023-03-29T20:58:12.045Z,68.48
2023-03-29T20:59:12.043Z,68.31
2023-03-29T21:00:12.162Z,68.23
2023-03-29T21:01:12.101Z,68.03
2023-03-29T21:02:12.104Z,67.92
2023-03-29T21:03:12.219Z,67.85
2023-03-29T21:04:12.051Z,67.88
2023-03-29T21:05:12.051Z,67.87
2023-03-29T21:06:12.067Z,67.79
2023-03-29T21:07:12.061Z,67.65
2023-03-29T21:08:12.085Z,67.62
2023-03-29T21:09:12.060Z,67.68
2023-03-29T21:10:12.059Z,67.64
2023-03-29T21:11:12.085Z,67.80
2023-03-29T21:12:12.100Z,67.96
2023-03-29T21:13:12.143Z,68.03
2023-03-29T21:14:12.138Z,68.18
2023-03-29T21:15:12.170Z,68.22
2023-03-29T21:16:12.218Z,68.30
2023-03-29T21:17:12.305Z,68.13
2023-03-29T21:18:12.338Z,68.28
2023-03-29T21:19:12.383Z,68.49
2023-03-29T21:20:12.414Z,68.71
2023-03-29T21:21:12.501Z,68.76
2023-03-29T21:22:12.670Z,68.90
2023-03-29T21:23:12.599Z,68.82
2023-03-29T21:24:12.628Z,68.74
2023-03-29T21:25:12.695Z,68.62
2023-03-29T21:26:13.351Z,68.62
2023-03-29T21:27:12.797Z,68.61
2023-03-29T21:28:12.804Z,68.68
2023-03-29T21:29:12.820Z,68.72
2023-03-29T21:30:12.870Z,68.83
2023-03-29T21:31:12.930Z,69.04
2023-03-29T21:32:12.982Z,68.89
2023-03-29T21:33:12.998Z,68.91
2023-03-29T21:34:13.073Z,68.78
2023-03-29T21:35:13.092Z,68.60
2023-03-29T21:36:13.216Z,68.39
2023-03-29T21:37:15.169Z,68.28
2023-03-29T21:38:13.138Z,68.30
2023-03-29T21:39:13.145Z,68.25
2023-03-29T21:40:13.138Z,68.13
2023-03-29T21:41:13.129Z,68.04
2023-03-29T21:42:13.131Z,68.01
2023-03-29T21:43:13.131Z,68.04
2023-03-29T21:44:13.167Z,68.12
2023-03-29T21:45:13.133Z,68.11
2023-03-29T21:46:13.182Z,68.18
2023-03-29T21:47:13.148Z,68.36
2023-03-29T21:48:13.149Z,68.49
2023-03-29T21:49:13.140Z,68.48
2023-03-29T21:50:13.132Z,68.61
2023-03-29T21:51:13.127Z,68.65
2023-03-29T21:52:13.128Z,68.60
2023-03-29T21:53:13.117Z,68.76
2023-03-29T21:54:13.126Z,69.02
2023-03-29T21:55:13.125Z,68.99
2023-03-29T21:56:13.122Z,69.03
2023-03-29T21:57:13.184Z,69.07
2023-03-29T21:58:13.107Z,69.00
2023-03-29T21:59:13.189Z,68.93
2023-03-29T22:00:13.141Z,68.85
2023-03-29T22:01:13.197Z,68.74
2023-03-29T22:02:13.228Z,68.73
2023-03-29T22:03:13.223Z,68.65
2023-03-29T22:04:19.882Z,68.54
2023-03-29T22:05:14.232Z,68.69
2023-03-29T22:06:13.253Z,68.78
2023-03-29T22:07:13.256Z,68.78
2023-03-29T22:08:13.283Z,68.93
2023-03-29T22:09:13.260Z,69.49
2023-03-29T22:10:13.278Z,69.50
2023-03-29T22:11:13.249Z,69.54
2023-03-29T22:12:13.266Z,69.50
2023-03-29T22:13:13.263Z,69.41
2023-03-29T22:14:13.265Z,69.24
2023-03-29T22:15:13.327Z,69.22
2023-03-29T22:16:13.322Z,69.34
2023-03-29T22:17:13.309Z,69.35
2023-03-29T22:18:13.369Z,69.42
2023-03-29T22:19:13.307Z,69.32
2023-03-29T22:20:13.339Z,69.33
2023-03-29T22:21:13.374Z,69.21
2023-03-29T22:22:13.975Z,69.31
2023-03-29T22:23:13.440Z,69.43
2023-03-29T22:24:13.485Z,69.59
2023-03-29T22:25:13.557Z,69.89
2023-03-29T22:26:13.555Z,69.94
2023-03-29T22:27:13.626Z,69.87
2023-03-29T22:28:13.668Z,69.91
2023-03-29T22:29:13.728Z,70.06
2023-03-29T22:30:13.762Z,70.03
2023-03-29T22:31:13.825Z,70.04
2023-03-29T22:32:13.886Z,69.99
2023-03-29T22:33:13.873Z,70.02
2023-03-29T22:34:13.907Z,69.80
2023-03-29T22:35:13.979Z,69.84
2023-03-29T22:36:14.113Z,69.91
2023-03-29T22:37:14.081Z,69.90
2023-03-29T22:38:14.102Z,70.08
2023-03-29T22:39:14.141Z,70.08
2023-03-29T22:40:14.169Z,69.96
2023-03-29T22:41:14.176Z,69.93
2023-03-29T22:42:14.225Z,69.92
2023-03-29T22:43:14.385Z,69.79
2023-03-29T22:44:14.212Z,69.70
2023-03-29T22:45:14.188Z,69.50
2023-03-29T22:46:14.212Z,69.22
2023-03-29T22:47:14.132Z,69.48
2023-03-29T22:48:14.117Z,69.60
2023-03-29T22:49:14.112Z,69.61
2023-03-29T22:50:14.096Z,69.60
2023-03-29T22:51:14.106Z,69.57
2023-03-29T22:52:14.104Z,69.70
2023-03-29T22:53:14.091Z,69.72
2023-03-29T22:54:14.078Z,69.73
2023-03-29T22:55:14.124Z,69.69
2023-03-29T22:56:14.169Z,69.56
2023-03-29T22:57:14.237Z,69.48
2023-03-29T22:58:14.279Z,69.44
2023-03-29T22:59:14.341Z,69.40
2023-03-29T23:00:14.373Z,69.24
2023-03-29T23:01:14.427Z,69.07
2023-03-29T23:02:14.450Z,69.00
2023-03-29T23:03:14.501Z,68.98
2023-03-29T23:04:14.566Z,69.04
2023-03-29T23:05:14.523Z,69.11
2023-03-29T23:06:14.526Z,69.07
2023-03-29T23:07:14.532Z,69.10
2023-03-29T23:08:14.514Z,69.27
2023-03-29T23:09:16.398Z,69.29
2023-03-29T23:10:14.499Z,69.33
2023-03-29T23:11:14.494Z,69.53
2023-03-29T23:12:14.509Z,69.66
2023-03-29T23:13:14.507Z,69.74
2023-03-29T23:14:14.519Z,69.78
2023-03-29T23:15:14.514Z,69.80
2023-03-29T23:16:14.583Z,69.86
2023-03-29T23:17:14.512Z,70.03
2023-03-29T23:18:14.557Z,70.23
2023-03-29T23:19:14.605Z,70.18
2023-03-29T23:20:14.668Z,70.12
2023-03-29T23:21:14.800Z,70.31
2023-03-29T23:22:14.782Z,70.29
2023-03-29T23:23:14.832Z,70.32
2023-03-29T23:24:16.985Z,70.32
2023-03-29T23:25:14.889Z,70.31
2023-03-29T23:26:14.904Z,70.19
2023-03-29T23:27:14.907Z,70.09
2023-03-29T23:28:14.912Z,69.89
2023-03-29T23:29:14.957Z,69.85
2023-03-29T23:30:14.880Z,69.73
2023-03-29T23:31:14.917Z,69.82
2023-03-29T23:32:14.919Z,69.78
2023-03-29T23:33:14.888Z,69.87
2023-03-29T23:34:14.894Z,69.90
2023-03-29T23:35:14.892Z,70.05
2023-03-29T23:36:14.902Z,70.64
2023-03-29T23:37:14.938Z,71.00
2023-03-29T23:38:14.963Z,71.13
2023-03-29T23:39:14.957Z,71.03
2023-03-29T23:40:14.996Z,70.93
2023-03-29T23:41:14.973Z,70.84
2023-03-29T23:42:14.983Z,70.59
2023-03-29T23:43:15.004Z,70.51
2023-03-29T23:44:15.001Z,70.60
2023-03-29T23:45:15.009Z,70.59
2023-03-29T23:46:15.045Z,70.50
2023-03-29T23:47:15.042Z,70.54
2023-03-29T23:48:15.068Z,70.48
2023-03-29T23:49:15.051Z,70.51
2023-03-29T23:50:15.074Z,70.59
2023-03-29T23:51:15.081Z,70.68
2023-03-29T23:52:15.082Z,70.66
2023-03-29T23:53:15.081Z,70.50
2023-03-29T23:54:15.085Z,70.52
2023-03-29T23:55:15.102Z,70.49
2023-03-29T23:56:15.102Z,70.59
2023-03-29T23:57:15.158Z,70.72
2023-03-29T23:58:15.157Z,70.96
2023-03-29T23:59:15.165Z,71.01
